Terminal Aerodrome Forecast
Issued by NWS Sterling, VA

Current Version | Previous Version | Text Only | Print | Product List | Glossary On
Versions: 1 2 3 4 5 6 7 8 9 10 11 12 13 14 15 16 17
033
FTUS41 KLWX 232329
TAFMRB
TAF
KMRB 232329Z 2400/2424 27010G18KT P6SM SCT050
     FM240200 28008KT P6SM SCT050
     FM240900 29012G22KT P6SM BKN050
     FM242300 29010KT P6SM SCT050=

USA.gov is the U.S. government's official web portal to all federal, state and local government web resources and services.